Time;durP1;ratioP1;P1;durP2;ratioP2;P2;SDS_P1;SDS_P2;PMS_P1;PMS_P2;Temp;Humidity;BMP_temperature;BMP_pressure;BME280_temperature;BME280_humidity;BME280_pressure;Samples;Min_cycle;Max_cycle;Signal;HPM_P1;HPM_P2
2022/05/18 00:00:06;;;;;;;;;;;23.80;80.00;23.90;99783.00;;;;342708;28;91083;-88
2022/05/18 00:00:20;;;;;;;;;;;23.80;79.70;24.00;99774.00;;;;344485;28;83081;-89
2022/05/18 00:00:32;;;;;;;;;;;23.80;79.70;24.00;99779.00;;;;343690;28;90956;-89
2022/05/18 00:00:52;;;;;;;;;;;23.80;79.70;23.90;99772.00;;;;345921;28;83409;-89
2022/05/18 00:01:08;;;;;;;;;;;23.80;79.80;23.80;99772.00;;;;344197;28;92096;-89
2022/05/18 00:01:22;;;;;;;;;;;23.80;80.20;23.70;99767.00;;;;347452;28;83584;-89
2022/05/18 00:01:34;;;;;;;;;;;23.80;80.20;23.80;99770.00;;;;345580;28;93268;-89
2022/05/18 00:01:45;;;;;;;;;;;23.80;79.90;23.90;99772.00;;;;345998;28;82555;-89
2022/05/18 00:01:59;;;;;;;;;;;23.80;79.80;23.90;99769.00;;;;345716;28;88836;-89
2022/05/18 00:02:11;;;;;;;;;;;23.80;79.80;23.90;99775.00;;;;346027;28;82507;-89
2022/05/18 00:02:23;;;;;;;;;;;23.80;80.00;23.90;99772.00;;;;345652;28;88250;-89
2022/05/18 00:02:35;;;;;;;;;;;23.80;79.90;23.90;99769.00;;;;346060;28;83348;-89
2022/05/18 00:02:47;;;;;;;;;;;23.80;79.50;23.80;99765.00;;;;345641;28;88977;-89
2022/05/18 00:03:05;;;;;;;;;;;23.80;79.70;23.80;99770.00;;;;346060;28;82353;-89
2022/05/18 00:03:19;;;;;;;;;;;23.80;80.00;23.70;99771.00;;;;344067;28;90300;-89
2022/05/18 00:03:34;;;;;;;;;;;23.80;80.30;23.80;99772.00;;;;345660;28;83594;-88
2022/05/18 00:03:46;;;;;;;;;;;23.70;80.30;23.70;99776.00;;;;344166;28;91208;-89
2022/05/18 00:03:58;;;;;;;;;;;23.70;80.10;23.60;99770.00;;;;344425;28;83489;-88
2022/05/18 00:04:10;;;;;;;;;;;23.70;80.30;23.60;99766.00;;;;342856;28;91717;-89
2022/05/18 00:04:22;;;;;;;;;;;23.70;80.30;23.60;99770.00;;;;346040;28;83325;-89
2022/05/18 00:04:34;;;;;;;;;;;23.80;80.50;23.60;99772.00;;;;347119;28;89379;-88
2022/05/18 00:04:45;;;;;;;;;;;23.70;81.20;23.60;99777.00;;;;347348;28;82427;-89
2022/05/18 00:04:57;;;;;;;;;;;23.70;80.40;23.70;99771.00;;;;345691;28;88885;-89
2022/05/18 00:05:09;;;;;;;;;;;23.70;80.00;23.70;99771.00;;;;344673;28;83381;-89
2022/05/18 00:05:21;;;;;;;;;;;23.70;79.90;23.70;99775.00;;;;346814;28;91360;-89
2022/05/18 00:05:35;;;;;;;;;;;23.70;79.80;23.60;99773.00;;;;344685;28;83406;-89
2022/05/18 00:05:46;;;;;;;;;;;23.70;80.20;23.50;99778.00;;;;345327;28;91512;-89
2022/05/18 00:05:59;;;;;;;;;;;23.70;80.50;23.50;99777.00;;;;346015;28;82363;-89
2022/05/18 00:06:11;;;;;;;;;;;23.70;80.50;23.40;99781.00;;;;342664;28;92430;-88
2022/05/18 00:06:23;;;;;;;;;;;23.70;80.80;23.40;99784.00;;;;344855;28;83338;-89
2022/05/18 00:06:35;;;;;;;;;;;23.60;81.00;23.40;99779.00;;;;345499;28;90210;-89
2022/05/18 00:06:46;;;;;;;;;;;23.60;81.20;23.50;99777.00;;;;344593;28;82424;-89
2022/05/18 00:06:58;;;;;;;;;;;23.60;80.80;23.50;99783.00;;;;344224;28;90797;-89
2022/05/18 00:07:10;;;;;;;;;;;23.60;80.30;23.60;99777.00;;;;346116;28;83295;-89
2022/05/18 00:07:22;;;;;;;;;;;23.60;80.00;23.60;99775.00;;;;345367;28;92365;-89
2022/05/18 00:07:34;;;;;;;;;;;23.60;80.10;23.50;99783.00;;;;347431;28;83207;-89
2022/05/18 00:07:45;;;;;;;;;;;23.60;80.40;23.60;99785.00;;;;346963;28;89567;-88
2022/05/18 00:07:57;;;;;;;;;;;23.60;80.20;23.60;99780.00;;;;344850;28;83259;-89
2022/05/18 00:08:09;;;;;;;;;;;23.60;80.10;23.60;99776.00;;;;342791;28;91404;-89
2022/05/18 00:08:21;;;;;;;;;;;23.60;80.30;23.50;99787.00;;;;344657;28;82392;-89
2022/05/18 00:08:36;;;;;;;;;;;23.60;80.20;23.50;99778.00;;;;344231;28;91023;-89
2022/05/18 00:08:47;;;;;;;;;;;23.60;80.20;23.60;99778.00;;;;347336;28;83511;-89
2022/05/18 00:08:59;;;;;;;;;;;23.50;80.20;23.60;99784.00;;;;345403;28;91155;-88
2022/05/18 00:09:11;;;;;;;;;;;23.60;80.00;23.60;99775.00;;;;344803;28;83372;-88
2022/05/18 00:09:23;;;;;;;;;;;23.50;79.80;23.70;99781.00;;;;344384;28;88874;-88
2022/05/18 00:09:34;;;;;;;;;;;23.60;80.30;23.60;99783.00;;;;344535;28;83474;-89
2022/05/18 00:09:46;;;;;;;;;;;23.60;80.30;23.60;99778.00;;;;344191;28;92176;-89
2022/05/18 00:09:58;;;;;;;;;;;23.50;80.80;23.50;99782.00;;;;347379;28;82491;-89
2022/05/18 00:10:10;;;;;;;;;;;23.50;81.50;23.40;99780.00;;;;344246;28;89632;-89
2022/05/18 00:10:21;;;;;;;;;;;23.50;81.50;23.50;99786.00;;;;345995;28;83346;-89
2022/05/18 00:10:34;;;;;;;;;;;23.50;81.20;23.40;99783.00;;;;345573;28;93070;-89
2022/05/18 00:10:46;;;;;;;;;;;23.50;81.30;23.40;99779.00;;;;344534;28;83272;-89
2022/05/18 00:10:58;;;;;;;;;;;23.50;81.20;23.40;99784.00;;;;344423;28;87818;-89
2022/05/18 00:11:12;;;;;;;;;;;23.50;81.20;23.40;99784.00;;;;346013;28;83391;-88
2022/05/18 00:11:24;;;;;;;;;;;23.50;80.90;23.30;99784.00;;;;342870;28;92329;-89
2022/05/18 00:11:36;;;;;;;;;;;23.50;81.00;23.30;99786.00;;;;344777;28;83319;-89
2022/05/18 00:11:47;;;;;;;;;;;23.50;81.20;23.40;99787.00;;;;345553;28;90187;-89
2022/05/18 00:11:59;;;;;;;;;;;23.50;81.30;23.40;99781.00;;;;345949;28;83360;-89
2022/05/18 00:12:11;;;;;;;;;;;23.50;80.90;23.40;99778.00;;;;344282;28;91336;-89
2022/05/18 00:12:23;;;;;;;;;;;23.50;80.50;23.50;99778.00;;;;347320;27;83404;-88
2022/05/18 00:12:41;;;;;;;;;;;23.50;80.20;23.40;99777.00;;;;347967;27;90027;-89
2022/05/18 00:12:53;;;;;;;;;;;23.50;80.70;23.50;99784.00;;;;343568;28;82338;-89
2022/05/18 00:13:05;;;;;;;;;;;23.50;80.50;23.50;99781.00;;;;342871;28;92369;-89
2022/05/18 00:13:17;;;;;;;;;;;23.50;80.10;23.50;99778.00;;;;344584;28;83383;-88
2022/05/18 00:13:29;;;;;;;;;;;23.50;80.10;23.60;99777.00;;;;344128;28;92174;-89
2022/05/18 00:13:41;;;;;;;;;;;23.50;80.40;23.60;99778.00;;;;344690;28;83395;-88
2022/05/18 00:13:53;;;;;;;;;;;23.50;80.50;23.60;99775.00;;;;346905;28;90177;-88
2022/05/18 00:14:05;;;;;;;;;;;23.50;80.50;23.50;99779.00;;;;346114;28;83331;-89
2022/05/18 00:14:17;;;;;;;;;;;23.50;80.60;23.60;99771.00;;;;347077;28;90180;-89
2022/05/18 00:14:29;;;;;;;;;;;23.50;80.50;23.60;99776.00;;;;348782;27;83285;-88
2022/05/18 00:14:40;;;;;;;;;;;23.50;80.40;23.60;99781.00;;;;344158;28;91553;-89
2022/05/18 00:14:52;;;;;;;;;;;23.50;80.30;23.60;99775.00;;;;347385;28;83272;-89
2022/05/18 00:15:04;;;;;;;;;;;23.50;80.60;23.60;99777.00;;;;345266;28;92306;-89
2022/05/18 00:15:18;;;;;;;;;;;23.50;80.30;23.60;99777.00;;;;344536;28;83331;-89
2022/05/18 00:15:30;;;;;;;;;;;23.50;80.60;23.50;99779.00;;;;345253;28;90580;-89
2022/05/18 00:15:43;;;;;;;;;;;23.50;80.90;23.50;99773.00;;;;344659;28;83374;-89
2022/05/18 00:15:55;;;;;;;;;;;23.50;81.20;23.50;99769.00;;;;344005;28;91845;-89
2022/05/18 00:16:06;;;;;;;;;;;23.50;81.20;23.50;99775.00;;;;344682;28;83511;-89
2022/05/18 00:16:19;;;;;;;;;;;23.50;80.70;23.50;99780.00;;;;347038;28;92473;-88
2022/05/18 00:16:31;;;;;;;;;;;23.40;80.70;23.50;99781.00;;;;344511;28;82573;-89
2022/05/18 00:16:43;;;;;;;;;;;23.40;80.80;23.60;99775.00;;;;346985;28;90546;-89
2022/05/18 00:16:56;;;;;;;;;;;23.40;80.50;23.50;99779.00;;;;347467;28;83368;-89
2022/05/18 00:17:08;;;;;;;;;;;23.40;81.20;23.50;99773.00;;;;346927;28;91116;-88
2022/05/18 00:17:19;;;;;;;;;;;23.40;80.70;23.50;99775.00;;;;345966;28;83383;-89
2022/05/18 00:17:31;;;;;;;;;;;23.40;80.60;23.50;99772.00;;;;345663;28;92152;-89
2022/05/18 00:17:43;;;;;;;;;;;23.40;80.60;23.40;99777.00;;;;347393;28;83297;-89
2022/05/18 00:17:55;;;;;;;;;;;23.40;80.90;23.50;99775.00;;;;345569;28;92968;-89
2022/05/18 00:18:07;;;;;;;;;;;23.40;80.60;23.60;99774.00;;;;347413;28;83412;-89
2022/05/18 00:18:18;;;;;;;;;;;23.40;80.80;23.60;99774.00;;;;346942;28;89101;-89
2022/05/18 00:18:30;;;;;;;;;;;23.40;80.80;23.60;99775.00;;;;348539;27;85260;-89
2022/05/18 00:18:42;;;;;;;;;;;23.40;80.90;23.60;99777.00;;;;346847;28;87721;-89
2022/05/18 00:18:54;;;;;;;;;;;23.40;81.00;23.60;99775.00;;;;345761;28;83382;-89
2022/05/18 00:19:06;;;;;;;;;;;23.50;80.90;23.50;99776.00;;;;344100;28;91696;-89
2022/05/18 00:19:17;;;;;;;;;;;23.40;81.00;23.50;99778.00;;;;347510;28;83138;-89
2022/05/18 00:19:30;;;;;;;;;;;23.40;80.90;23.50;99775.00;;;;345634;28;91569;-89
2022/05/18 00:19:42;;;;;;;;;;;23.40;80.70;23.60;99768.00;;;;346053;28;83448;-89
2022/05/18 00:19:53;;;;;;;;;;;23.40;80.60;23.60;99776.00;;;;345380;28;93109;-89
2022/05/18 00:20:06;;;;;;;;;;;23.40;81.00;23.60;99775.00;;;;347354;28;83252;-89
2022/05/18 00:20:18;;;;;;;;;;;23.40;80.90;23.50;99774.00;;;;346912;28;92455;-89
2022/05/18 00:20:30;;;;;;;;;;;23.50;81.00;23.50;99774.00;;;;342003;28;83407;-89
2022/05/18 00:20:42;;;;;;;;;;;23.40;81.00;23.50;99778.00;;;;346848;28;92064;-88
2022/05/18 00:20:53;;;;;;;;;;;23.40;81.00;23.50;99777.00;;;;346101;28;83224;-89
2022/05/18 00:21:05;;;;;;;;;;;23.40;81.00;23.50;99775.00;;;;342972;28;89111;-89
2022/05/18 00:21:17;;;;;;;;;;;23.40;81.00;23.50;99768.00;;;;344657;28;82565;-89
2022/05/18 00:21:30;;;;;;;;;;;23.40;81.30;23.50;99773.00;;;;343418;28;92300;-89
2022/05/18 00:21:42;;;;;;;;;;;23.40;80.60;23.60;99770.00;;;;344399;28;83531;-89
2022/05/18 00:21:54;;;;;;;;;;;23.40;80.80;23.60;99782.00;;;;342805;28;88879;-89
2022/05/18 00:22:06;;;;;;;;;;;23.40;80.80;23.60;99778.00;;;;344689;28;83444;-89
2022/05/18 00:22:17;;;;;;;;;;;23.40;80.60;23.60;99771.00;;;;346979;28;89246;-89
2022/05/18 00:22:29;;;;;;;;;;;23.40;80.70;23.60;99777.00;;;;344821;28;83467;-88
2022/05/18 00:22:52;;;;;;;;;;;23.40;80.90;23.60;99774.00;;;;344149;28;91270;-89
2022/05/18 00:23:04;;;;;;;;;;;23.50;80.80;23.50;99782.00;;;;346114;28;83518;-88
2022/05/18 00:23:16;;;;;;;;;;;23.40;81.60;23.50;99774.00;;;;345547;28;89287;-89
2022/05/18 00:23:28;;;;;;;;;;;23.40;81.50;23.50;99780.00;;;;344653;28;83303;-89
2022/05/18 00:23:39;;;;;;;;;;;23.40;81.00;23.60;99781.00;;;;347004;28;89529;-89
2022/05/18 00:23:51;;;;;;;;;;;23.40;81.00;23.50;99779.00;;;;348832;27;83323;-88
2022/05/18 00:24:04;;;;;;;;;;;23.40;81.10;23.50;99777.00;;;;346869;27;93088;-88
2022/05/18 00:24:16;;;;;;;;;;;23.40;81.30;23.40;99782.00;;;;344653;28;82277;-89
2022/05/18 00:24:28;;;;;;;;;;;23.40;81.50;23.30;99788.00;;;;345031;28;91354;-89
2022/05/18 00:24:39;;;;;;;;;;;23.40;81.60;23.20;99784.00;;;;347369;28;82660;-89
2022/05/18 00:24:51;;;;;;;;;;;23.40;81.80;23.20;99783.00;;;;346770;28;90181;-89
2022/05/18 00:25:03;;;;;;;;;;;23.40;81.90;23.30;99784.00;;;;344367;28;83372;-88
2022/05/18 00:25:15;;;;;;;;;;;23.40;81.80;23.40;99785.00;;;;347025;28;89236;-89
2022/05/18 00:25:29;;;;;;;;;;;23.40;81.40;23.40;99782.00;;;;345219;28;83603;-89
2022/05/18 00:25:41;;;;;;;;;;;23.40;81.30;23.40;99788.00;;;;348416;27;91561;-89
2022/05/18 00:25:53;;;;;;;;;;;23.40;81.20;23.40;99783.00;;;;345959;28;83390;-89
2022/05/18 00:26:05;;;;;;;;;;;23.40;81.60;23.50;99785.00;;;;344107;28;93105;-89
2022/05/18 00:26:17;;;;;;;;;;;23.30;81.50;23.40;99790.00;;;;347370;27;83326;-89
2022/05/18 00:26:28;;;;;;;;;;;23.40;82.00;23.30;99783.00;;;;344263;28;89073;-88
2022/05/18 00:26:41;;;;;;;;;;;23.30;81.70;23.30;99788.00;;;;347306;28;83395;-89
2022/05/18 00:26:53;;;;;;;;;;;23.30;81.60;23.30;99784.00;;;;346914;28;91942;-88
2022/05/18 00:27:05;;;;;;;;;;;23.30;81.50;23.20;99786.00;;;;344542;28;83468;-89
2022/05/18 00:27:16;;;;;;;;;;;23.30;81.60;23.30;99783.00;;;;346835;28;91548;-88
2022/05/18 00:27:28;;;;;;;;;;;23.30;81.60;23.30;99790.00;;;;346888;28;83521;-88
2022/05/18 00:27:40;;;;;;;;;;;23.30;81.60;23.30;99788.00;;;;344130;28;90316;-88
2022/05/18 00:27:52;;;;;;;;;;;23.30;81.80;23.30;99786.00;;;;347280;28;82591;-89
2022/05/18 00:28:04;;;;;;;;;;;23.30;82.00;23.30;99787.00;;;;345559;28;89690;-89
2022/05/18 00:28:16;;;;;;;;;;;23.30;81.40;23.40;99788.00;;;;346011;28;83519;-88
2022/05/18 00:28:27;;;;;;;;;;;23.30;81.40;23.40;99786.00;;;;342298;28;87697;-88
2022/05/18 00:28:39;;;;;;;;;;;23.30;81.70;23.40;99784.00;;;;344577;28;83470;-89
2022/05/18 00:28:51;;;;;;;;;;;23.30;81.40;23.40;99784.00;;;;347017;28;91137;-88
2022/05/18 00:29:03;;;;;;;;;;;23.30;81.60;23.40;99786.00;;;;348804;27;83404;-89
2022/05/18 00:29:15;;;;;;;;;;;23.30;81.80;23.30;99783.00;;;;345588;28;91245;-89
2022/05/18 00:29:27;;;;;;;;;;;23.30;82.20;23.20;99783.00;;;;345967;28;83302;-89
2022/05/18 00:29:39;;;;;;;;;;;23.30;82.70;23.30;99785.00;;;;346903;28;91164;-89
2022/05/18 00:29:51;;;;;;;;;;;23.30;82.10;23.40;99785.00;;;;344607;28;83312;-88
2022/05/18 00:30:03;;;;;;;;;;;23.30;81.80;23.40;99783.00;;;;345395;28;92057;-88
2022/05/18 00:30:16;;;;;;;;;;;23.30;81.80;23.30;99783.00;;;;344643;28;83245;-89
2022/05/18 00:30:28;;;;;;;;;;;23.30;82.50;23.40;99780.00;;;;347087;27;91585;-89
2022/05/18 00:30:40;;;;;;;;;;;23.30;82.00;23.40;99789.00;;;;348679;27;83340;-89
2022/05/18 00:30:52;;;;;;;;;;;23.30;81.80;23.40;99786.00;;;;345569;28;89093;-88
2022/05/18 00:31:04;;;;;;;;;;;23.30;81.80;23.30;99788.00;;;;345786;28;83218;-89
2022/05/18 00:31:17;;;;;;;;;;;23.30;81.90;23.30;99787.00;;;;345658;28;90294;-89
2022/05/18 00:31:29;;;;;;;;;;;23.30;82.20;23.40;99785.00;;;;348706;27;82569;-89
2022/05/18 00:31:41;;;;;;;;;;;23.30;81.90;23.30;99786.00;;;;344164;28;92135;-89
2022/05/18 00:31:53;;;;;;;;;;;23.20;82.00;23.50;99787.00;;;;346031;28;82604;-89
2022/05/18 00:32:05;;;;;;;;;;;23.30;82.00;23.40;99783.00;;;;346874;28;90542;-89
2022/05/18 00:32:17;;;;;;;;;;;23.30;82.50;23.30;99789.00;;;;343369;28;82554;-89
2022/05/18 00:32:28;;;;;;;;;;;23.20;82.80;23.40;99785.00;;;;344162;28;91220;-89
2022/05/18 00:32:40;;;;;;;;;;;23.20;82.10;23.50;99783.00;;;;347364;28;83878;-89
2022/05/18 00:32:52;;;;;;;;;;;23.20;82.00;23.40;99785.00;;;;345603;28;91271;-89
2022/05/18 00:33:05;;;;;;;;;;;23.30;82.10;23.40;99785.00;;;;347353;28;83570;-89
2022/05/18 00:33:17;;;;;;;;;;;23.30;82.50;23.40;99788.00;;;;345498;28;92047;-89
2022/05/18 00:33:29;;;;;;;;;;;23.30;82.10;23.30;99783.00;;;;347377;27;84213;-88
2022/05/18 00:33:41;;;;;;;;;;;23.30;82.40;23.40;99788.00;;;;345093;28;91175;-89
2022/05/18 00:33:52;;;;;;;;;;;23.20;81.80;23.40;99787.00;;;;346005;28;83413;-89
2022/05/18 00:34:04;;;;;;;;;;;23.30;81.70;23.40;99784.00;;;;345440;28;92602;-89
2022/05/18 00:34:16;;;;;;;;;;;23.30;81.70;23.30;99785.00;;;;344520;28;83475;-89
2022/05/18 00:34:28;;;;;;;;;;;23.20;82.00;23.30;99786.00;;;;345343;28;90492;-89
2022/05/18 00:34:39;;;;;;;;;;;23.30;82.30;23.20;99788.00;;;;345895;28;83309;-89
2022/05/18 00:34:51;;;;;;;;;;;23.30;82.30;23.30;99789.00;;;;345567;28;91628;-89
2022/05/18 00:35:03;;;;;;;;;;;23.20;82.10;23.30;99787.00;;;;344728;28;82494;-89
2022/05/18 00:35:16;;;;;;;;;;;23.20;81.90;23.30;99790.00;;;;342837;28;91941;-89
2022/05/18 00:35:29;;;;;;;;;;;23.20;82.00;23.20;99789.00;;;;346119;28;83339;-89
2022/05/18 00:35:41;;;;;;;;;;;23.20;82.40;23.20;99785.00;;;;346971;28;89547;-89
2022/05/18 00:35:53;;;;;;;;;;;23.20;82.50;23.20;99783.00;;;;344778;28;83283;-88
2022/05/18 00:36:05;;;;;;;;;;;23.20;82.10;23.30;99789.00;;;;345495;28;91159;-89
2022/05/18 00:36:17;;;;;;;;;;;23.20;82.10;23.30;99788.00;;;;345969;28;83391;-89
2022/05/18 00:36:28;;;;;;;;;;;23.20;81.80;23.40;99785.00;;;;344935;28;91525;-89
2022/05/18 00:36:40;;;;;;;;;;;23.20;81.90;23.40;99784.00;;;;347082;28;83415;-89
2022/05/18 00:36:52;;;;;;;;;;;23.20;82.00;23.40;99787.00;;;;346619;28;91695;-89
2022/05/18 00:37:04;;;;;;;;;;;23.20;82.20;23.40;99783.00;;;;347428;28;83344;-89
2022/05/18 00:37:16;;;;;;;;;;;23.20;82.00;23.40;99784.00;;;;348203;27;92421;-89
2022/05/18 00:37:27;;;;;;;;;;;23.20;82.00;23.50;99784.00;;;;345901;28;83546;-89
2022/05/18 00:37:39;;;;;;;;;;;23.20;82.00;23.50;99779.00;;;;345700;28;88801;-88
2022/05/18 00:37:51;;;;;;;;;;;23.20;82.00;23.50;99784.00;;;;347387;28;83418;-89
2022/05/18 00:38:03;;;;;;;;;;;23.20;82.10;23.50;99781.00;;;;344095;28;92330;-89
2022/05/18 00:38:15;;;;;;;;;;;23.30;82.30;23.40;99783.00;;;;347435;28;83318;-88
2022/05/18 00:38:27;;;;;;;;;;;23.30;82.20;23.40;99787.00;;;;347031;28;87646;-89
2022/05/18 00:38:39;;;;;;;;;;;23.30;82.00;23.50;99782.00;;;;343237;28;82392;-88
2022/05/18 00:38:50;;;;;;;;;;;23.30;81.80;23.50;99783.00;;;;344199;28;91507;-89
2022/05/18 00:39:02;;;;;;;;;;;23.30;81.90;23.60;99780.00;;;;346079;28;83170;-88
2022/05/18 00:39:14;;;;;;;;;;;23.20;82.10;23.60;99777.00;;;;344184;28;89639;-89
2022/05/18 00:39:26;;;;;;;;;;;23.30;82.30;23.60;99781.00;;;;346410;28;83551;-89
2022/05/18 00:39:38;;;;;;;;;;;23.30;82.10;23.60;99781.00;;;;345541;28;87634;-88
2022/05/18 00:39:49;;;;;;;;;;;23.30;82.20;23.60;99784.00;;;;345864;28;83225;-88
2022/05/18 00:40:01;;;;;;;;;;;23.30;82.30;23.60;99774.00;;;;344113;28;91200;-89
2022/05/18 00:40:14;;;;;;;;;;;23.30;82.30;23.60;99784.00;;;;347486;28;83321;-88
2022/05/18 00:40:26;;;;;;;;;;;23.30;82.10;23.50;99783.00;;;;346810;28;92610;-89
2022/05/18 00:40:39;;;;;;;;;;;23.30;82.10;23.50;99778.00;;;;344557;28;83349;-89
2022/05/18 00:40:51;;;;;;;;;;;23.30;82.00;23.50;99782.00;;;;347090;28;87972;-89
2022/05/18 00:41:03;;;;;;;;;;;23.30;81.80;23.50;99783.00;;;;346039;28;83376;-88
2022/05/18 00:41:19;;;;;;;;;;;23.30;81.90;23.40;99783.00;;;;342821;28;91140;-89
2022/05/18 00:41:31;;;;;;;;;;;23.30;82.00;23.40;99787.00;;;;348706;27;83571;-89
2022/05/18 00:41:42;;;;;;;;;;;23.30;82.20;23.40;99789.00;;;;346883;28;91547;-89
2022/05/18 00:41:54;;;;;;;;;;;23.30;82.40;23.20;99775.00;;;;346050;28;83403;-88
2022/05/18 00:42:12;;;;;;;;;;;23.30;82.50;23.20;99782.00;;;;347016;28;89689;-89
2022/05/18 00:42:25;;;;;;;;;;;23.30;82.70;23.20;99780.00;;;;344192;28;82738;-89
2022/05/18 00:42:37;;;;;;;;;;;23.30;82.80;23.20;99784.00;;;;342849;28;89170;-89
2022/05/18 00:42:49;;;;;;;;;;;23.30;82.60;23.20;99785.00;;;;345897;28;83381;-89
2022/05/18 00:43:01;;;;;;;;;;;23.20;82.20;23.20;99783.00;;;;345583;28;92192;-89
2022/05/18 00:43:18;;;;;;;;;;;23.30;82.30;23.20;99793.00;;;;345933;28;83298;-88
2022/05/18 00:43:29;;;;;;;;;;;23.20;82.10;23.20;99784.00;;;;346700;28;89054;-89
2022/05/18 00:43:43;;;;;;;;;;;23.20;82.30;23.20;99785.00;;;;347392;28;83368;-89
2022/05/18 00:43:55;;;;;;;;;;;23.20;82.10;23.20;99785.00;;;;347007;28;87815;-89
2022/05/18 00:44:07;;;;;;;;;;;23.20;82.10;23.20;99788.00;;;;345943;28;83493;-89
2022/05/18 00:44:21;;;;;;;;;;;23.20;82.10;23.20;99788.00;;;;346898;28;90242;-88
2022/05/18 00:44:33;;;;;;;;;;;23.20;82.30;23.20;99779.00;;;;345950;28;83479;-89
2022/05/18 00:44:44;;;;;;;;;;;23.20;82.10;23.30;99782.00;;;;344265;28;89244;-89
2022/05/18 00:44:56;;;;;;;;;;;23.20;81.90;23.30;99787.00;;;;344808;28;82320;-87
2022/05/18 00:45:08;;;;;;;;;;;23.20;82.00;23.20;99791.00;;;;346950;28;92471;-89
2022/05/18 00:45:20;;;;;;;;;;;23.20;82.40;23.20;99777.00;;;;344504;28;82605;-88
2022/05/18 00:45:33;;;;;;;;;;;23.20;82.70;23.20;99788.00;;;;345175;28;91000;-89
2022/05/18 00:45:45;;;;;;;;;;;23.20;82.20;23.20;99785.00;;;;345967;28;83423;-89
2022/05/18 00:45:58;;;;;;;;;;;23.20;82.10;23.20;99783.00;;;;345539;28;88036;-89
2022/05/18 00:46:12;;;;;;;;;;;23.20;82.20;23.20;99788.00;;;;347324;28;83439;-89
2022/05/18 00:46:24;;;;;;;;;;;23.10;82.50;23.20;99787.00;;;;346421;28;92415;-89
2022/05/18 00:46:36;;;;;;;;;;;23.10;82.30;23.20;99782.00;;;;345883;28;83506;-89
2022/05/18 00:46:47;;;;;;;;;;;23.10;82.00;23.20;99779.00;;;;345708;28;89121;-89
2022/05/18 00:46:59;;;;;;;;;;;23.10;82.10;23.20;99783.00;;;;344657;28;83436;-89
2022/05/18 00:47:31;;;;;;;;;;;23.10;82.10;23.20;99792.00;;;;347044;28;89990;-89
2022/05/18 00:47:43;;;;;;;;;;;23.10;82.20;23.10;99782.00;;;;347460;28;83178;-88
2022/05/18 00:47:55;;;;;;;;;;;23.10;82.70;23.10;99788.00;;;;348250;27;91225;-89
2022/05/18 00:48:06;;;;;;;;;;;23.10;82.70;23.00;99781.00;;;;345990;28;83460;-89
2022/05/18 00:48:18;;;;;;;;;;;23.10;82.90;23.00;99781.00;;;;345523;28;91527;-88
2022/05/18 00:48:30;;;;;;;;;;;23.10;82.90;23.10;99785.00;;;;346567;28;83308;-88
2022/05/18 00:48:42;;;;;;;;;;;23.10;82.70;23.20;99786.00;;;;346691;28;92555;-88
2022/05/18 00:48:54;;;;;;;;;;;23.10;82.50;23.20;99774.00;;;;345834;28;83386;-88
2022/05/18 00:49:06;;;;;;;;;;;23.10;82.50;23.10;99779.00;;;;345562;28;91529;-88
2022/05/18 00:49:18;;;;;;;;;;;23.10;82.70;23.10;99780.00;;;;346000;28;83296;-88
2022/05/18 00:49:30;;;;;;;;;;;23.10;82.40;23.20;99780.00;;;;345208;28;91976;-89
2022/05/18 00:49:45;;;;;;;;;;;23.10;82.90;23.20;99787.00;;;;346106;28;83433;-88
2022/05/18 00:49:59;;;;;;;;;;;23.10;82.80;23.20;99788.00;;;;343923;28;91024;-89
2022/05/18 00:50:16;;;;;;;;;;;23.10;82.70;23.10;99788.00;;;;347386;28;83459;-89
2022/05/18 00:50:31;;;;;;;;;;;23.10;83.70;23.00;99783.00;;;;345521;28;91691;-89
2022/05/18 00:50:43;;;;;;;;;;;23.10;83.50;22.90;99790.00;;;;344533;28;83428;-89
2022/05/18 00:50:55;;;;;;;;;;;23.00;83.50;22.80;99785.00;;;;345586;28;93022;-89
2022/05/18 00:51:14;;;;;;;;;;;23.00;83.60;22.80;99788.00;;;;345946;28;83392;-89
2022/05/18 00:51:53;;;;;;;;;;;23.00;83.70;23.20;99789.00;;;;345082;28;88578;-88
2022/05/18 00:52:06;;;;;;;;;;;23.00;83.20;23.10;99786.00;;;;345963;28;83374;-89
2022/05/18 00:52:19;;;;;;;;;;;23.00;83.40;23.00;99788.00;;;;345320;28;91533;-88
2022/05/18 00:52:55;;;;;;;;;;;23.00;83.70;23.00;99783.00;;;;344515;28;83543;-88
2022/05/18 00:53:09;;;;;;;;;;;23.00;83.40;22.90;99791.00;;;;346964;28;92298;-89
2022/05/18 00:53:23;;;;;;;;;;;23.00;83.60;22.90;99789.00;;;;347425;27;82469;-88
2022/05/18 00:53:38;;;;;;;;;;;23.00;84.00;22.90;99788.00;;;;344251;28;92534;-89
2022/05/18 00:54:02;;;;;;;;;;;23.00;84.00;22.90;99786.00;;;;344187;28;84169;-89
2022/05/18 00:54:20;;;;;;;;;;;23.00;84.00;22.90;99791.00;;;;345566;28;92946;-89
2022/05/18 00:54:31;;;;;;;;;;;22.90;83.30;22.90;99778.00;;;;345563;28;83560;-88
2022/05/18 00:54:43;;;;;;;;;;;22.90;83.10;22.90;99788.00;;;;346865;28;87388;-89
2022/05/18 00:54:55;;;;;;;;;;;23.00;83.60;22.90;99789.00;;;;345102;28;82452;-89
2022/05/18 00:55:08;;;;;;;;;;;22.90;83.90;23.00;99789.00;;;;345542;28;91519;-89
2022/05/18 00:55:21;;;;;;;;;;;22.90;83.50;23.00;99788.00;;;;344530;28;83394;-89
2022/05/18 00:55:40;;;;;;;;;;;22.90;83.40;23.00;99792.00;;;;346997;28;91358;-89
2022/05/18 00:55:55;;;;;;;;;;;22.90;83.50;23.00;99791.00;;;;346181;28;82311;-88
2022/05/18 00:56:09;;;;;;;;;;;22.90;83.60;23.00;99787.00;;;;346632;28;91150;-89
2022/05/18 00:56:30;;;;;;;;;;;22.90;83.30;23.00;99787.00;;;;347476;28;83268;-89
2022/05/18 00:56:42;;;;;;;;;;;22.90;83.50;22.90;99789.00;;;;346835;28;92097;-89
2022/05/18 00:56:57;;;;;;;;;;;22.90;83.70;22.80;99785.00;;;;347396;28;83512;-89
2022/05/18 00:57:15;;;;;;;;;;;22.80;83.80;22.70;99784.00;;;;345615;28;91423;-89
2022/05/18 00:57:30;;;;;;;;;;;22.80;83.60;22.80;99784.00;;;;346596;27;82754;-89
2022/05/18 00:57:46;;;;;;;;;;;22.80;83.90;22.60;99783.00;;;;345449;28;90251;-89
2022/05/18 00:58:23;;;;;;;;;;;22.80;83.90;22.80;99788.00;;;;345873;28;83426;-89
2022/05/18 00:58:54;;;;;;;;;;;22.80;84.00;22.70;99785.00;;;;338565;28;93438;-89
2022/05/18 00:59:18;;;;;;;;;;;22.80;84.10;22.70;99784.00;;;;339039;28;83471;-88
2022/05/18 00:59:31;;;;;;;;;;;22.80;84.20;22.90;99787.00;;;;341379;28;87923;-89
2022/05/18 00:59:46;;;;;;;;;;;22.80;84.20;22.80;99789.00;;;;339019;28;83205;-88
2022/05/18 01:00:09;;;;;;;;;;;22.80;84.50;23.00;99788.00;;;;338122;28;91717;-89
2022/05/18 01:00:21;;;;;;;;;;;22.80;84.30;23.00;99788.00;;;;338833;28;82430;-89
2022/05/18 01:00:33;;;;;;;;;;;22.80;84.50;23.10;99781.00;;;;341695;28;91024;-88
2022/05/18 01:00:45;;;;;;;;;;;22.90;84.50;22.90;99790.00;;;;338966;28;82564;-89
2022/05/18 01:00:57;;;;;;;;;;;22.90;84.80;22.90;99788.00;;;;341175;28;91787;-89
2022/05/18 01:01:09;;;;;;;;;;;22.80;84.50;22.80;99785.00;;;;340294;28;82274;-88
2022/05/18 01:01:22;;;;;;;;;;;22.80;84.30;22.80;99794.00;;;;339902;28;90476;-89
2022/05/18 01:01:34;;;;;;;;;;;22.80;84.00;22.80;99782.00;;;;340362;28;83406;-89
2022/05/18 01:01:46;;;;;;;;;;;22.80;84.20;22.80;99788.00;;;;341263;28;91808;-88
2022/05/18 01:01:58;;;;;;;;;;;22.80;84.30;22.90;99788.00;;;;338930;28;83502;-88
2022/05/18 01:02:10;;;;;;;;;;;22.80;84.20;22.90;99786.00;;;;335839;28;92476;-89
2022/05/18 01:02:29;;;;;;;;;;;22.80;84.20;22.80;99786.00;;;;337504;28;84052;-89
2022/05/18 01:02:44;;;;;;;;;;;22.80;84.30;22.90;99786.00;;;;338544;28;90897;-89
2022/05/18 01:02:59;;;;;;;;;;;22.80;84.30;23.00;99785.00;;;;339104;28;82585;-88
2022/05/18 01:03:14;;;;;;;;;;;22.80;84.20;22.80;99782.00;;;;337260;28;90786;-88
2022/05/18 01:03:32;;;;;;;;;;;22.80;84.20;22.70;99779.00;;;;339990;28;83527;-88
2022/05/18 01:03:45;;;;;;;;;;;22.80;84.70;22.80;99788.00;;;;337189;28;93613;-89
2022/05/18 01:03:57;;;;;;;;;;;22.80;84.60;22.90;99787.00;;;;339307;28;83333;-89
2022/05/18 01:04:09;;;;;;;;;;;22.80;84.30;22.90;99788.00;;;;338570;28;92121;-89
2022/05/18 01:04:20;;;;;;;;;;;22.80;84.20;22.80;99788.00;;;;340385;28;82205;-89
2022/05/18 01:04:32;;;;;;;;;;;22.80;84.20;22.80;99790.00;;;;338539;28;92427;-89